createdAt,value
2023-03-04T00:02:25.145Z,25.60
2023-03-04T00:04:54.919Z,21.50
2023-03-04T00:07:24.157Z,22.30
2023-03-04T00:09:52.938Z,23.20
2023-03-04T00:12:21.931Z,20.30
2023-03-04T00:14:50.908Z,24.60
2023-03-04T00:17:26.362Z,19.80
2023-03-04T00:19:55.305Z,23.30
2023-03-04T00:22:23.676Z,21.40
2023-03-04T00:24:51.733Z,26.90
2023-03-04T00:27:20.390Z,24.20
2023-03-04T00:29:49.061Z,24.40
2023-03-04T00:32:18.465Z,24.20
2023-03-04T00:34:46.797Z,25.70
2023-03-04T00:37:15.353Z,26.30
2023-03-04T00:39:45.510Z,26.70
2023-03-04T00:42:16.864Z,23.50
2023-03-04T00:44:46.352Z,24.90
2023-03-04T00:47:15.179Z,26.40
2023-03-04T00:49:43.722Z,28.70
2023-03-04T00:52:12.729Z,21.30
2023-03-04T00:54:42.793Z,24.40
2023-03-04T00:57:11.249Z,24.30
2023-03-04T00:59:41.394Z,26.20
2023-03-04T01:02:11.655Z,26.40
2023-03-04T01:04:43.176Z,25.80
2023-03-04T01:07:12.623Z,22.80
2023-03-04T01:09:45.276Z,22.60
2023-03-04T01:12:14.194Z,25.80
2023-03-04T01:14:42.665Z,26.90
2023-03-04T01:17:17.452Z,27.00
2023-03-04T01:21:10.762Z,30.00
2023-03-04T01:23:41.451Z,27.10
2023-03-04T01:26:11.437Z,27.80
2023-03-04T01:28:39.608Z,25.60
2023-03-04T01:31:08.939Z,24.20
2023-03-04T01:33:37.591Z,25.30
2023-03-04T01:36:05.955Z,24.60
2023-03-04T01:38:35.006Z,26.80
2023-03-04T01:41:04.396Z,27.50
2023-03-04T01:43:33.608Z,26.10
2023-03-04T01:46:01.833Z,26.10
2023-03-04T01:48:31.652Z,25.70
2023-03-04T01:51:03.194Z,23.10
2023-03-04T01:53:33.198Z,27.00
2023-03-04T01:56:02.153Z,27.50
2023-03-04T01:58:31.465Z,25.00
2023-03-04T02:00:59.626Z,27.90
2023-03-04T02:03:27.682Z,28.10
2023-03-04T02:05:56.192Z,26.40
2023-03-04T02:08:24.910Z,29.30
2023-03-04T02:10:53.924Z,29.10
2023-03-04T02:13:23.422Z,25.60
2023-03-04T02:15:53.312Z,27.20
2023-03-04T02:18:23.711Z,34.40
2023-03-04T02:20:57.955Z,36.80
2023-03-04T02:23:26.108Z,35.00
2023-03-04T02:26:13.472Z,32.80
2023-03-04T02:28:41.750Z,38.80
2023-03-04T02:31:26.596Z,34.30
2023-03-04T02:33:56.793Z,33.50
2023-03-04T02:36:24.992Z,31.20
2023-03-04T02:38:53.638Z,32.10
2023-03-04T02:41:25.675Z,30.00
2023-03-04T02:43:57.966Z,34.80
2023-03-04T02:46:27.149Z,42.20
2023-03-04T02:48:55.469Z,41.80
2023-03-04T02:51:23.871Z,46.80
2023-03-04T02:53:52.842Z,48.70
2023-03-04T02:56:21.942Z,38.80
2023-03-04T02:58:50.078Z,35.90
2023-03-04T03:01:19.848Z,33.80
2023-03-04T03:03:48.282Z,31.20
2023-03-04T03:06:16.995Z,34.90
2023-03-04T03:08:45.296Z,33.20
2023-03-04T03:11:15.121Z,31.30
2023-03-04T03:13:43.544Z,30.30
2023-03-04T03:16:12.988Z,34.40
2023-03-04T03:18:41.675Z,33.20
2023-03-04T03:21:10.065Z,35.50
2023-03-04T03:23:38.302Z,29.70
2023-03-04T03:26:07.883Z,33.40
2023-03-04T03:28:36.259Z,34.20
2023-03-04T03:31:05.450Z,30.90
2023-03-04T03:33:34.288Z,30.10
2023-03-04T03:36:03.785Z,31.20
2023-03-04T03:38:32.243Z,30.00
2023-03-04T03:41:01.038Z,29.10
2023-03-04T03:43:29.377Z,26.80
2023-03-04T03:45:57.987Z,28.70
2023-03-04T03:48:26.807Z,27.70
2023-03-04T03:50:56.212Z,28.50
2023-03-04T03:53:25.760Z,31.30
2023-03-04T03:55:56.465Z,30.60
2023-03-04T03:58:27.506Z,32.60
2023-03-04T04:00:58.315Z,36.10
2023-03-04T04:03:26.782Z,26.00
2023-03-04T04:05:54.897Z,28.00
2023-03-04T04:08:26.215Z,30.80
2023-03-04T04:10:54.498Z,31.90
2023-03-04T04:13:24.063Z,33.40
2023-03-04T04:15:55.374Z,34.10
2023-03-04T04:18:25.988Z,37.50
2023-03-04T04:20:58.022Z,37.90
2023-03-04T04:23:27.062Z,34.80
2023-03-04T04:25:55.671Z,38.20
2023-03-04T04:28:24.315Z,37.20
2023-03-04T04:30:52.566Z,42.00
2023-03-04T04:33:22.575Z,42.90
2023-03-04T04:35:50.928Z,36.50
2023-03-04T04:38:19.317Z,43.50
2023-03-04T04:40:47.678Z,36.00
2023-03-04T04:43:16.555Z,38.80
2023-03-04T04:45:45.599Z,39.70
2023-03-04T04:48:14.080Z,36.70
2023-03-04T04:50:42.276Z,41.30
2023-03-04T04:53:13.470Z,37.50
2023-03-04T04:55:42.320Z,43.10
2023-03-04T04:58:11.543Z,41.10
2023-03-04T05:00:40.586Z,34.90
2023-03-04T05:03:10.553Z,35.90
2023-03-04T05:05:40.115Z,33.10
2023-03-04T05:08:11.307Z,34.50
2023-03-04T05:10:40.200Z,32.30
2023-03-04T05:13:08.316Z,40.20
2023-03-04T05:15:39.408Z,36.30
2023-03-04T05:18:08.392Z,40.50
2023-03-04T05:20:40.826Z,37.00
2023-03-04T05:23:10.231Z,34.00
2023-03-04T05:25:38.418Z,38.30
2023-03-04T05:28:12.555Z,38.60
2023-03-04T05:30:40.934Z,38.10
2023-03-04T05:33:10.777Z,40.60
2023-03-04T05:35:39.469Z,36.30
2023-03-04T05:38:09.193Z,36.10
2023-03-04T05:40:39.142Z,38.60
2023-03-04T05:43:07.768Z,33.80
2023-03-04T05:45:38.094Z,34.80
2023-03-04T05:48:06.431Z,39.60
2023-03-04T05:50:35.451Z,36.10
2023-03-04T05:53:04.246Z,33.90
2023-03-04T05:55:36.820Z,25.70
2023-03-04T05:58:05.224Z,36.70
2023-03-04T06:00:33.340Z,38.00
2023-03-04T06:03:02.137Z,38.70
2023-03-04T06:05:30.889Z,34.40
2023-03-04T06:08:00.523Z,32.60
2023-03-04T06:10:28.832Z,37.90
2023-03-04T06:12:57.385Z,31.60
2023-03-04T06:15:27.050Z,35.80
2023-03-04T06:17:55.449Z,36.90
2023-03-04T06:20:24.531Z,47.80
2023-03-04T06:22:53.676Z,38.30
2023-03-04T06:25:22.452Z,38.20
2023-03-04T06:27:52.259Z,41.90
2023-03-04T06:30:21.256Z,41.30
2023-03-04T06:32:49.436Z,39.50
2023-03-04T06:35:18.161Z,43.00
2023-03-04T06:37:46.294Z,41.10
2023-03-04T06:40:14.484Z,42.20
2023-03-04T06:42:42.917Z,38.80
2023-03-04T06:45:13.984Z,40.80
2023-03-04T06:47:44.669Z,38.30
2023-03-04T06:50:13.390Z,41.80
2023-03-04T06:52:41.530Z,37.60
2023-03-04T06:55:09.819Z,36.10
2023-03-04T06:57:38.222Z,34.10
2023-03-04T07:00:06.749Z,40.00
2023-03-04T07:02:36.039Z,33.10
2023-03-04T07:05:04.918Z,35.30
2023-03-04T07:07:33.467Z,34.00
2023-03-04T07:10:01.538Z,38.20
2023-03-04T07:12:29.976Z,37.10
2023-03-04T07:14:58.173Z,31.00
2023-03-04T07:17:26.387Z,33.00
2023-03-04T07:19:54.706Z,29.50
2023-03-04T07:22:22.844Z,30.20
2023-03-04T07:24:51.226Z,29.70
2023-03-04T07:27:22.023Z,28.90
2023-03-04T07:29:50.496Z,28.40
2023-03-04T07:32:18.787Z,28.10
2023-03-04T07:34:47.188Z,23.20
2023-03-04T07:37:15.632Z,28.40
2023-03-04T07:39:44.707Z,26.40
2023-03-04T07:42:13.491Z,24.90
2023-03-04T07:44:42.367Z,22.90
2023-03-04T07:47:10.736Z,23.90
2023-03-04T07:49:38.940Z,24.70
2023-03-04T07:52:07.844Z,29.80
2023-03-04T07:54:36.343Z,27.30
2023-03-04T07:57:04.523Z,27.80
2023-03-04T07:59:32.955Z,26.60
2023-03-04T08:02:01.041Z,29.40
2023-03-04T08:04:29.577Z,25.70
2023-03-04T08:06:58.629Z,29.30
2023-03-04T08:09:29.641Z,25.50
2023-03-04T08:11:58.230Z,27.10
2023-03-04T08:14:27.103Z,26.10
2023-03-04T08:16:56.508Z,31.50
2023-03-04T08:19:26.637Z,29.20
2023-03-04T08:21:54.752Z,26.60
2023-03-04T08:24:23.268Z,23.60
2023-03-04T08:26:51.392Z,23.00
2023-03-04T08:29:21.307Z,22.60
2023-03-04T08:31:50.073Z,25.20
2023-03-04T08:34:19.492Z,27.10
2023-03-04T08:36:51.985Z,21.10
2023-03-04T08:39:21.239Z,22.50
2023-03-04T08:41:50.334Z,21.70
2023-03-04T08:44:18.509Z,23.60
2023-03-04T08:46:46.990Z,22.40
2023-03-04T08:49:18.595Z,24.40
2023-03-04T08:51:48.568Z,23.20
2023-03-04T08:54:16.740Z,21.40
2023-03-04T08:56:45.222Z,23.10
2023-03-04T08:59:13.780Z,29.10
2023-03-04T09:01:42.825Z,21.80
2023-03-04T09:04:11.316Z,22.40
2023-03-04T09:06:40.842Z,19.50
2023-03-04T09:09:09.612Z,27.20
2023-03-04T09:11:41.984Z,23.20
2023-03-04T09:14:10.927Z,21.60
2023-03-04T09:16:40.129Z,21.70
2023-03-04T09:19:08.491Z,23.70
2023-03-04T09:21:38.211Z,23.40
2023-03-04T09:24:07.208Z,18.80
2023-03-04T09:26:35.626Z,24.20
2023-03-04T09:29:04.325Z,21.20
2023-03-04T09:31:33.231Z,25.30
2023-03-04T09:34:02.204Z,21.80
2023-03-04T09:36:30.471Z,25.80
2023-03-04T09:39:02.056Z,25.10
2023-03-04T09:41:49.269Z,29.50
2023-03-04T09:44:26.710Z,18.90
2023-03-04T09:46:56.122Z,23.10
2023-03-04T09:49:24.495Z,19.50
2023-03-04T09:52:09.529Z,22.00
2023-03-04T09:54:37.798Z,20.50
2023-03-04T09:57:18.347Z,18.50
2023-03-04T10:00:09.841Z,18.80
2023-03-04T10:02:48.338Z,19.90
2023-03-04T10:05:22.500Z,27.00
2023-03-04T10:07:55.032Z,17.80
2023-03-04T10:10:28.593Z,20.30
2023-03-04T10:12:59.264Z,16.60
2023-03-04T10:15:44.564Z,16.60
2023-03-04T10:18:14.984Z,20.20
2023-03-04T10:20:47.092Z,16.80
2023-03-04T10:23:18.425Z,24.20
2023-03-04T10:28:26.726Z,17.50
2023-03-04T10:31:14.003Z,13.80
2023-03-04T10:33:44.367Z,18.70
2023-03-04T10:36:18.957Z,14.60
2023-03-04T10:38:48.301Z,17.10
2023-03-04T10:41:24.846Z,17.10
2023-03-04T10:44:04.312Z,14.10
2023-03-04T10:46:33.275Z,22.30
2023-03-04T10:49:01.351Z,18.40
2023-03-04T10:51:29.880Z,18.10
2023-03-04T10:54:03.885Z,15.40
2023-03-04T10:56:40.245Z,19.40
2023-03-04T10:59:27.528Z,16.40
2023-03-04T11:01:56.780Z,14.00
2023-03-04T11:04:27.981Z,14.30
2023-03-04T11:06:59.060Z,13.70
2023-03-04T11:09:28.236Z,18.70
2023-03-04T11:11:59.044Z,18.20
2023-03-04T11:14:44.518Z,21.20
2023-03-04T11:17:23.146Z,15.50
2023-03-04T11:20:08.955Z,21.00
2023-03-04T11:22:37.411Z,16.50
2023-03-04T11:25:06.327Z,18.10
2023-03-04T11:27:39.001Z,19.10
2023-03-04T11:30:16.620Z,17.90
2023-03-04T11:32:46.355Z,17.20
2023-03-04T11:35:26.380Z,13.30
2023-03-04T11:38:14.655Z,24.50
2023-03-04T11:40:54.220Z,23.00
2023-03-04T11:43:34.906Z,19.10
2023-03-04T11:46:06.184Z,27.70
2023-03-04T11:48:49.968Z,20.90
2023-03-04T11:51:45.252Z,20.50
2023-03-04T11:54:33.042Z,24.70
2023-03-04T11:57:03.779Z,17.50
2023-03-04T11:59:50.640Z,27.70
2023-03-04T12:02:20.366Z,25.80
2023-03-04T12:04:54.442Z,27.40
2023-03-04T12:10:10.428Z,17.40
2023-03-04T12:12:55.103Z,25.30
2023-03-04T12:15:29.293Z,16.20
2023-03-04T12:18:00.731Z,25.90
2023-03-04T12:20:37.081Z,15.90
2023-03-04T12:23:16.212Z,22.10
2023-03-04T12:26:00.792Z,18.40
2023-03-04T12:28:41.062Z,24.40
2023-03-04T12:31:28.196Z,22.20
2023-03-04T12:34:08.380Z,18.90
2023-03-04T12:36:55.107Z,22.80
2023-03-04T12:39:42.865Z,19.20
2023-03-04T12:42:17.316Z,24.10
2023-03-04T12:45:07.358Z,28.90
2023-03-04T12:47:38.623Z,20.80
2023-03-04T12:50:11.834Z,21.20
2023-03-04T12:52:58.721Z,20.30
2023-03-04T12:55:30.709Z,23.20
2023-03-04T12:57:59.464Z,19.80
2023-03-04T13:00:30.747Z,18.00
2023-03-04T13:03:13.443Z,19.00
2023-03-04T13:06:04.014Z,22.30
2023-03-04T13:08:34.847Z,24.90
2023-03-04T13:11:25.818Z,27.00
2023-03-04T13:14:06.534Z,23.00
2023-03-04T13:16:39.772Z,17.40
2023-03-04T13:19:26.693Z,18.40
2023-03-04T13:21:55.412Z,22.60
2023-03-04T13:24:59.398Z,27.60
2023-03-04T13:27:50.188Z,17.80
2023-03-04T13:30:34.658Z,21.00
2023-03-04T13:33:16.661Z,15.90
2023-03-04T13:35:45.964Z,19.60
2023-03-04T13:39:31.510Z,34.50
2023-03-04T13:42:00.228Z,22.00
2023-03-04T13:44:48.497Z,22.70
2023-03-04T13:47:17.497Z,20.90
2023-03-04T13:49:46.224Z,23.80
2023-03-04T13:52:33.836Z,20.70
2023-03-04T13:55:21.488Z,21.70
2023-03-04T13:57:50.444Z,17.20
2023-03-04T14:00:18.911Z,15.40
2023-03-04T14:02:47.193Z,16.60
2023-03-04T14:05:15.486Z,17.10
2023-03-04T14:07:43.600Z,17.50
2023-03-04T14:10:15.875Z,18.50
2023-03-04T14:12:45.639Z,14.00
2023-03-04T14:15:13.765Z,22.30
2023-03-04T14:17:47.505Z,19.40
2023-03-04T14:20:21.926Z,16.60
2023-03-04T14:22:52.428Z,18.00
2023-03-04T14:25:25.378Z,23.50
2023-03-04T14:28:05.441Z,24.10
2023-03-04T14:30:42.656Z,19.70
2023-03-04T14:33:21.965Z,22.20
2023-03-04T14:35:57.744Z,16.80
2023-03-04T14:38:30.075Z,15.90
2023-03-04T14:41:00.447Z,17.70
2023-03-04T14:43:28.773Z,20.00
2023-03-04T14:45:59.274Z,20.30
2023-03-04T14:48:28.312Z,18.90
2023-03-04T14:50:56.851Z,20.80
2023-03-04T14:53:28.705Z,21.60
2023-03-04T14:56:00.926Z,18.00
2023-03-04T14:58:33.318Z,16.10
2023-03-04T15:01:08.877Z,17.10
2023-03-04T15:03:37.791Z,16.80
2023-03-04T15:06:16.729Z,19.20
2023-03-04T15:08:44.973Z,18.40
2023-03-04T15:11:14.944Z,20.70
2023-03-04T15:16:23.668Z,27.90
2023-03-04T15:19:02.398Z,18.80
2023-03-04T15:21:36.860Z,17.70
2023-03-04T15:24:06.240Z,16.70
2023-03-04T15:26:35.035Z,19.30
2023-03-04T15:29:04.077Z,26.20
2023-03-04T15:31:32.280Z,14.10
2023-03-04T15:34:01.093Z,21.30
2023-03-04T15:36:29.548Z,17.60
2023-03-04T15:38:58.074Z,19.30
2023-03-04T15:41:26.514Z,14.60
2023-03-04T15:43:54.786Z,15.10
2023-03-04T15:46:23.142Z,18.40
2023-03-04T15:48:51.704Z,17.70
2023-03-04T15:51:21.118Z,14.90
2023-03-04T15:53:55.933Z,16.40
2023-03-04T15:56:24.791Z,17.10
2023-03-04T15:58:53.913Z,17.10
2023-03-04T16:01:24.098Z,20.70
2023-03-04T16:03:53.780Z,16.10
2023-03-04T16:06:23.504Z,16.70
2023-03-04T16:08:52.185Z,21.80
2023-03-04T16:11:21.215Z,16.70
2023-03-04T16:13:49.463Z,18.80
2023-03-04T16:16:17.733Z,14.40
2023-03-04T16:18:45.863Z,14.70
2023-03-04T16:21:19.143Z,17.50
2023-03-04T16:23:47.847Z,18.50
2023-03-04T16:26:17.498Z,16.00
2023-03-04T16:28:46.458Z,19.80
2023-03-04T16:31:14.949Z,16.50
2023-03-04T16:33:43.491Z,16.20
2023-03-04T16:36:15.946Z,21.60
2023-03-04T16:38:44.307Z,18.80
2023-03-04T16:41:13.908Z,28.70
2023-03-04T16:43:43.150Z,20.40
2023-03-04T16:46:14.281Z,15.70
2023-03-04T16:48:42.556Z,17.30
2023-03-04T16:51:17.547Z,17.70
2023-03-04T16:53:56.830Z,15.80
2023-03-04T16:56:26.191Z,20.70
2023-03-04T16:58:54.431Z,22.50
2023-03-04T17:01:23.546Z,17.70
2023-03-04T17:03:52.584Z,18.90
2023-03-04T17:06:21.623Z,17.90
2023-03-04T17:08:49.863Z,18.60
2023-03-04T17:11:20.207Z,18.00
2023-03-04T17:13:50.187Z,17.10
2023-03-04T17:16:18.794Z,20.30
2023-03-04T17:18:47.158Z,38.80
2023-03-04T17:21:16.627Z,35.20
2023-03-04T17:23:45.324Z,21.60
2023-03-04T17:26:15.789Z,19.70
2023-03-04T17:28:44.037Z,19.90
2023-03-04T17:31:12.887Z,16.90
2023-03-04T17:33:41.544Z,20.50
2023-03-04T17:36:14.439Z,18.60
2023-03-04T17:38:42.748Z,20.60
2023-03-04T17:41:13.481Z,17.20
2023-03-04T17:43:51.163Z,18.10
2023-03-04T17:46:20.434Z,20.80
2023-03-04T17:48:49.022Z,19.50
2023-03-04T17:51:17.176Z,21.20
2023-03-04T17:53:45.879Z,17.50
2023-03-04T17:56:17.038Z,18.40
2023-03-04T17:58:45.443Z,17.50
2023-03-04T18:01:17.824Z,18.80
2023-03-04T18:03:48.997Z,24.20
2023-03-04T18:06:17.389Z,20.50
2023-03-04T18:08:50.109Z,21.30
2023-03-04T18:11:22.441Z,22.00
2023-03-04T18:13:51.009Z,18.50
2023-03-04T18:16:23.566Z,26.50
2023-03-04T18:18:51.841Z,24.50
2023-03-04T18:21:25.850Z,24.50
2023-03-04T18:23:54.916Z,30.10
2023-03-04T18:26:23.662Z,27.60
2023-03-04T18:28:53.007Z,23.30
2023-03-04T18:31:21.900Z,23.50
2023-03-04T18:33:53.611Z,27.70
2023-03-04T18:36:21.791Z,27.60
2023-03-04T18:38:50.115Z,22.90
2023-03-04T18:41:18.366Z,21.30
2023-03-04T18:43:46.511Z,28.00
2023-03-04T18:46:17.996Z,22.20
2023-03-04T18:48:49.066Z,29.50
2023-03-04T18:51:22.827Z,28.70
2023-03-04T18:53:51.853Z,23.10
2023-03-04T18:56:23.094Z,22.30
2023-03-04T18:58:51.647Z,24.10
2023-03-04T19:01:20.870Z,26.60
2023-03-04T19:03:49.172Z,23.70
2023-03-04T19:06:17.535Z,34.20
2023-03-04T19:08:53.534Z,32.80
2023-03-04T19:11:22.993Z,32.60
2023-03-04T19:13:51.851Z,42.20
2023-03-04T19:16:20.127Z,38.00
2023-03-04T19:18:48.622Z,45.80
2023-03-04T19:21:17.440Z,36.70
2023-03-04T19:23:45.597Z,28.00
2023-03-04T19:26:17.197Z,38.60
2023-03-04T19:28:45.284Z,28.50
2023-03-04T19:31:14.187Z,24.20
2023-03-04T19:33:42.710Z,25.20
2023-03-04T19:36:11.072Z,27.10
2023-03-04T19:38:39.450Z,29.20
2023-03-04T19:41:08.416Z,28.40
2023-03-04T19:43:38.723Z,27.10
2023-03-04T19:46:08.406Z,23.10
2023-03-04T19:48:37.159Z,24.40
2023-03-04T19:51:06.273Z,25.10
2023-03-04T19:53:35.086Z,30.10
2023-03-04T19:56:03.211Z,28.10
2023-03-04T19:58:31.721Z,25.40
2023-03-04T20:01:02.273Z,26.50
2023-03-04T20:03:31.242Z,29.40
2023-03-04T20:06:06.668Z,25.30
2023-03-04T20:08:37.947Z,25.90
2023-03-04T20:11:08.041Z,23.10
2023-03-04T20:13:37.508Z,27.60
2023-03-04T20:16:12.219Z,31.60
2023-03-04T20:18:41.261Z,24.40
2023-03-04T20:21:09.643Z,23.60
2023-03-04T20:23:38.840Z,27.20
2023-03-04T20:26:06.965Z,28.30
2023-03-04T20:28:35.943Z,25.10
2023-03-04T20:31:15.814Z,26.90
2023-03-04T20:33:44.770Z,26.40
2023-03-04T20:36:13.487Z,27.40
2023-03-04T20:38:41.728Z,25.90
2023-03-04T20:41:10.390Z,26.60
2023-03-04T20:43:38.842Z,25.90
2023-03-04T20:46:26.728Z,30.70
2023-03-04T20:48:55.577Z,28.50
2023-03-04T20:51:26.073Z,28.20
2023-03-04T20:53:55.578Z,32.20
2023-03-04T20:56:24.159Z,25.80
2023-03-04T20:58:52.455Z,27.70
2023-03-04T21:01:21.009Z,29.90
2023-03-04T21:03:49.936Z,30.60
2023-03-04T21:06:18.079Z,28.60
2023-03-04T21:08:53.065Z,30.30
2023-03-04T21:11:23.609Z,33.50
2023-03-04T21:13:56.589Z,32.40
2023-03-04T21:16:26.062Z,31.90
2023-03-04T21:18:55.160Z,32.90
2023-03-04T21:21:25.113Z,32.00
2023-03-04T21:23:53.654Z,33.10
2023-03-04T21:26:22.399Z,34.70
2023-03-04T21:28:51.372Z,28.10
2023-03-04T21:31:24.635Z,31.30
2023-03-04T21:33:53.289Z,25.60
2023-03-04T21:36:21.950Z,35.50
2023-03-04T21:38:51.057Z,37.50
2023-03-04T21:41:20.574Z,33.00
2023-03-04T21:43:48.833Z,36.60
2023-03-04T21:46:18.059Z,37.50
2023-03-04T21:48:48.204Z,34.20
2023-03-04T21:51:18.547Z,35.00
2023-03-04T21:53:47.444Z,33.80
2023-03-04T21:56:16.264Z,33.20
2023-03-04T21:58:46.199Z,33.40
2023-03-04T22:01:16.173Z,35.40
2023-03-04T22:03:44.976Z,39.50
2023-03-04T22:06:13.066Z,33.10
2023-03-04T22:08:46.386Z,35.60
2023-03-04T22:11:16.816Z,37.20
2023-03-04T22:13:45.194Z,37.40
2023-03-04T22:16:13.396Z,35.90
2023-03-04T22:18:43.035Z,37.20
2023-03-04T22:21:12.074Z,45.00
2023-03-04T22:23:40.728Z,40.00
2023-03-04T22:26:10.906Z,38.10
2023-03-04T22:28:39.967Z,34.30
2023-03-04T22:31:18.678Z,40.40
2023-03-04T22:33:47.300Z,34.00
2023-03-04T22:36:16.319Z,41.10
2023-03-04T22:38:45.296Z,40.10
2023-03-04T22:41:15.000Z,43.60
2023-03-04T22:43:43.372Z,42.00
2023-03-04T22:46:32.345Z,46.00
2023-03-04T22:49:01.758Z,47.00
2023-03-04T22:51:30.171Z,44.40
2023-03-04T22:53:58.359Z,44.20
2023-03-04T22:56:26.626Z,43.80
2023-03-04T22:58:55.060Z,46.70
2023-03-04T23:01:24.223Z,76.20
2023-03-04T23:03:53.386Z,64.80
2023-03-04T23:06:22.924Z,55.90
2023-03-04T23:08:52.400Z,46.50
2023-03-04T23:11:26.574Z,42.90
2023-03-04T23:13:54.805Z,44.60
2023-03-04T23:16:28.624Z,42.90
2023-03-04T23:18:59.295Z,42.20
2023-03-04T23:21:28.572Z,42.20
2023-03-04T23:23:56.734Z,44.50
2023-03-04T23:26:26.317Z,42.60
2023-03-04T23:28:57.115Z,37.50
2023-03-04T23:31:25.896Z,42.20
2023-03-04T23:33:59.613Z,39.60
2023-03-04T23:36:32.391Z,45.90
2023-03-04T23:39:01.093Z,41.10
2023-03-04T23:41:31.165Z,39.10
2023-03-04T23:43:59.445Z,39.00
2023-03-04T23:46:28.005Z,42.90
2023-03-04T23:48:56.421Z,43.40
2023-03-04T23:51:26.156Z,43.80
2023-03-04T23:53:54.785Z,45.50
2023-03-04T23:56:25.810Z,39.90
2023-03-04T23:58:54.697Z,39.30
